Time;durP1;ratioP1;P1;durP2;ratioP2;P2;SDS_P1;SDS_P2;PMS_P1;PMS_P2;Temp;Humidity;BMP_temperature;BMP_pressure;BME280_temperature;BME280_humidity;BME280_pressure;Samples;Min_cycle;Max_cycle;Signal;HPM_P1;HPM_P2
2023/10/20 00:02:27;;;;;;;;;;;17.60;63.50;;;13.23;100.00;92731.50;5006346;28;19909;-48
2023/10/20 00:04:53;;;;;;;;;;;17.50;63.40;;;13.16;100.00;92724.09;5010541;28;19947;-48
2023/10/20 00:07:21;;;;;;;;;;;17.50;63.50;;;13.10;100.00;92730.84;5010380;28;19909;-49
2023/10/20 00:09:49;;;;;;;;;;;17.50;63.70;;;13.15;100.00;92725.22;5014104;28;20357;-53
2023/10/20 00:12:16;;;;;;;;;;;17.50;63.80;;;13.17;100.00;92712.31;5014605;28;19916;-50
2023/10/20 00:14:41;;;;;;;;;;;17.50;63.70;;;13.18;100.00;92706.59;5013501;28;19916;-52
2023/10/20 00:17:07;;;;;;;;;;;17.50;63.80;;;13.20;100.00;92701.69;5013944;28;19912;-48
2023/10/20 00:19:33;;;;;;;;;;;17.50;63.80;;;13.16;100.00;92694.69;5013304;28;19982;-50
2023/10/20 00:21:59;;;;;;;;;;;17.50;63.80;;;13.11;100.00;92684.31;4996727;28;19941;-53
2023/10/20 00:24:25;;;;;;;;;;;17.50;63.80;;;13.10;100.00;92685.41;5013969;28;19909;-50
2023/10/20 00:26:51;;;;;;;;;;;17.50;63.90;;;13.15;100.00;92671.78;5013104;28;20319;-52
2023/10/20 00:29:16;;;;;;;;;;;17.40;63.80;;;13.14;100.00;92659.56;5014262;28;19913;-51
2023/10/20 00:31:42;;;;;;;;;;;17.40;63.80;;;13.08;100.00;92653.72;5013401;28;19909;-54
2023/10/20 00:34:08;;;;;;;;;;;17.40;63.80;;;13.05;100.00;92638.38;5005923;28;19909;-50
2023/10/20 00:36:33;;;;;;;;;;;17.40;64.00;;;13.04;100.00;92634.16;5013950;28;19913;-49
2023/10/20 00:38:59;;;;;;;;;;;17.40;64.10;;;13.04;100.00;92644.84;5011255;28;19913;-48
2023/10/20 00:41:25;;;;;;;;;;;17.40;64.30;;;13.05;100.00;92651.72;5014170;28;19909;-48
2023/10/20 00:43:51;;;;;;;;;;;17.40;64.40;;;13.05;100.00;92650.97;5013001;28;20416;-51
2023/10/20 00:46:16;;;;;;;;;;;17.40;64.50;;;13.06;100.00;92642.59;5013782;28;19943;-50
2023/10/20 00:48:42;;;;;;;;;;;17.40;64.60;;;13.09;100.00;92622.41;5011913;28;19913;-48
2023/10/20 00:51:08;;;;;;;;;;;17.40;64.50;;;13.06;100.00;92612.41;5012962;28;19909;-50
2023/10/20 00:53:37;;;;;;;;;;;17.40;64.40;;;13.03;100.00;92608.53;5013344;28;20427;-53
2023/10/20 00:56:06;;;;;;;;;;;17.30;64.40;;;12.98;100.00;92578.69;5011338;28;20005;-48
2023/10/20 00:58:32;;;;;;;;;;;17.30;64.40;;;12.93;100.00;92561.03;5013107;28;19913;-49
2023/10/20 01:00:59;;;;;;;;;;;17.30;64.50;;;12.92;100.00;92546.91;5013751;28;19909;-54
2023/10/20 01:03:25;;;;;;;;;;;17.30;64.50;;;12.85;100.00;92557.47;5011002;28;19916;-52
2023/10/20 01:05:51;;;;;;;;;;;17.20;64.60;;;12.83;100.00;92559.69;5013358;28;20339;-48
2023/10/20 01:08:17;;;;;;;;;;;17.20;64.60;;;12.80;100.00;92547.03;5012177;28;19909;-49
2023/10/20 01:10:43;;;;;;;;;;;17.20;64.60;;;12.77;100.00;92544.31;5013352;28;20045;-51
2023/10/20 01:13:09;;;;;;;;;;;17.10;64.70;;;12.72;100.00;92530.13;5012436;28;19956;-49
2023/10/20 01:15:37;;;;;;;;;;;17.10;64.90;;;12.71;100.00;92515.19;5013183;28;19916;-47
2023/10/20 01:18:03;;;;;;;;;;;17.10;65.00;;;12.68;100.00;92523.91;5012647;28;20012;-47
2023/10/20 01:20:30;;;;;;;;;;;17.10;65.10;;;12.72;100.00;92519.44;5007028;28;19996;-48
2023/10/20 01:22:59;;;;;;;;;;;17.10;65.20;;;12.74;100.00;92519.84;5012352;28;20260;-48
2023/10/20 01:25:26;;;;;;;;;;;17.10;65.10;;;12.74;100.00;92513.72;5012131;28;19917;-47
2023/10/20 01:27:52;;;;;;;;;;;17.00;65.10;;;12.71;100.00;92525.09;5012621;28;19909;-50
2023/10/20 01:30:18;;;;;;;;;;;17.00;65.10;;;12.73;100.00;92510.28;5012943;28;19916;-47
2023/10/20 01:32:44;;;;;;;;;;;17.00;65.00;;;12.74;100.00;92501.13;5008552;28;19997;-47
2023/10/20 01:35:10;;;;;;;;;;;17.00;65.00;;;12.70;100.00;92489.63;5005534;28;19962;-47
2023/10/20 01:37:35;;;;;;;;;;;17.00;65.00;;;12.64;100.00;92507.06;5011685;28;19981;-47
2023/10/20 01:40:01;;;;;;;;;;;17.00;65.10;;;12.60;100.00;92505.44;5012740;28;19927;-52
2023/10/20 01:42:27;;;;;;;;;;;17.00;65.10;;;12.63;100.00;92489.50;5013054;28;19909;-49
2023/10/20 01:44:53;;;;;;;;;;;17.00;65.10;;;12.59;100.00;92477.94;5011761;28;19936;-51
2023/10/20 01:47:18;;;;;;;;;;;16.90;65.00;;;12.57;100.00;92456.19;5012125;23;19925;-49
2023/10/20 01:49:44;;;;;;;;;;;17.00;65.20;;;12.54;100.00;92450.78;4991322;28;19921;-49
2023/10/20 01:52:10;;;;;;;;;;;17.00;65.30;;;12.53;100.00;92438.53;4993019;28;19909;-51
2023/10/20 01:54:35;;;;;;;;;;;16.90;65.20;;;12.54;100.00;92419.53;4992011;28;19916;-49
2023/10/20 01:57:01;;;;;;;;;;;16.90;65.40;;;12.54;100.00;92419.53;4991806;28;19925;-48
2023/10/20 01:59:27;;;;;;;;;;;16.90;65.50;;;12.59;100.00;92411.19;4992880;28;20360;-50
2023/10/20 02:01:53;;;;;;;;;;;16.90;65.50;;;12.57;100.00;92386.78;4991733;28;19909;-49
2023/10/20 02:04:19;;;;;;;;;;;16.90;65.50;;;12.47;100.00;92388.13;4992832;28;19913;-50
2023/10/20 02:06:44;;;;;;;;;;;16.90;65.50;;;12.49;100.00;92401.88;4992314;28;19910;-49
2023/10/20 02:09:10;;;;;;;;;;;16.90;65.60;;;12.54;100.00;92400.06;4990348;28;19917;-55
2023/10/20 02:11:36;;;;;;;;;;;16.90;65.70;;;12.56;100.00;92382.53;4992855;28;19925;-55
2023/10/20 02:14:03;;;;;;;;;;;16.90;65.60;;;12.47;100.00;92360.63;4991901;28;19933;-53
2023/10/20 02:16:30;;;;;;;;;;;16.90;65.60;;;12.46;100.00;92377.78;4992217;28;19913;-50
2023/10/20 02:18:56;;;;;;;;;;;16.80;65.60;;;12.44;100.00;92372.81;4992421;28;20008;-55
2023/10/20 02:21:22;;;;;;;;;;;16.80;65.70;;;12.52;100.00;92348.91;4991370;28;20007;-54
2023/10/20 02:23:48;;;;;;;;;;;16.80;65.60;;;12.47;100.00;92348.09;4992096;28;19952;-52
2023/10/20 02:26:14;;;;;;;;;;;16.90;65.70;;;12.41;100.00;92341.50;4984502;28;19910;-54
2023/10/20 02:28:40;;;;;;;;;;;16.80;65.70;;;12.43;100.00;92338.44;4992355;28;19909;-50
2023/10/20 02:31:19;;;;;;;;;;;16.80;65.70;;;12.50;100.00;92347.38;4983277;28;19922;-51
2023/10/20 02:33:45;;;;;;;;;;;16.80;65.70;;;12.51;100.00;92350.81;4989382;28;20364;-52
2023/10/20 02:36:19;;;;;;;;;;;16.80;65.80;;;12.44;100.00;92323.97;4991764;28;20390;-54
2023/10/20 02:38:47;;;;;;;;;;;16.80;65.80;;;12.39;100.00;92300.25;4988926;28;19909;-54
2023/10/20 02:41:16;;;;;;;;;;;16.80;65.80;;;12.47;100.00;92304.56;4991951;28;19916;-54
2023/10/20 02:43:41;;;;;;;;;;;16.80;65.80;;;12.44;100.00;92298.06;4990851;28;19910;-56
2023/10/20 02:46:09;;;;;;;;;;;16.80;65.80;;;12.46;100.00;92303.03;4991321;28;20299;-52
2023/10/20 02:48:35;;;;;;;;;;;16.80;65.80;;;12.48;100.00;92301.56;4991883;28;20276;-55
2023/10/20 02:51:13;;;;;;;;;;;16.80;65.80;;;12.45;100.00;92282.81;4991236;28;20008;-49
2023/10/20 02:53:39;;;;;;;;;;;16.80;65.80;;;12.36;100.00;92272.38;4991840;28;20334;-53
2023/10/20 02:56:16;;;;;;;;;;;16.80;65.80;;;12.43;100.00;92282.41;4990377;28;19917;-54
2023/10/20 02:58:43;;;;;;;;;;;16.80;65.70;;;12.41;100.00;92268.63;4991594;28;19948;-54
2023/10/20 03:01:13;;;;;;;;;;;16.80;65.80;;;12.43;100.00;92274.41;4991857;28;19909;-51
2023/10/20 03:03:39;;;;;;;;;;;16.80;65.80;;;12.44;100.00;92249.22;4991596;28;19909;-51
2023/10/20 03:06:09;;;;;;;;;;;16.80;65.80;;;12.43;100.00;92248.47;4983344;28;20330;-49
2023/10/20 03:08:39;;;;;;;;;;;16.80;65.80;;;12.42;100.00;92230.16;4989128;28;19909;-52
2023/10/20 03:11:07;;;;;;;;;;;16.80;66.60;;;12.37;100.00;92230.44;4983801;28;19968;-55
2023/10/20 03:13:33;;;;;;;;;;;16.80;65.90;;;12.36;100.00;92208.31;4990776;28;19909;-55
2023/10/20 03:15:59;;;;;;;;;;;16.80;65.90;;;12.35;100.00;92198.03;4989858;28;19910;-49
2023/10/20 03:18:25;;;;;;;;;;;16.70;65.90;;;12.33;100.00;92192.25;4993007;28;19916;-53
2023/10/20 03:20:51;;;;;;;;;;;16.70;66.10;;;12.32;100.00;92178.16;4988462;28;20060;-52
2023/10/20 03:23:20;;;;;;;;;;;16.70;66.10;;;12.29;100.00;92170.09;5005998;28;20007;-51
2023/10/20 03:25:46;;;;;;;;;;;16.70;66.10;;;12.30;100.00;92158.28;4990842;28;19909;-52
2023/10/20 03:28:12;;;;;;;;;;;16.70;66.20;;;12.30;100.00;92152.94;4991184;28;20358;-53
2023/10/20 03:30:42;;;;;;;;;;;16.70;66.20;;;12.30;100.00;92143.03;4991624;28;20012;-54
2023/10/20 03:33:13;;;;;;;;;;;16.70;66.30;;;12.36;100.00;92167.53;4989412;28;19916;-55
2023/10/20 03:35:40;;;;;;;;;;;16.70;66.30;;;12.38;100.00;92159.91;4988185;28;19910;-49
2023/10/20 03:38:07;;;;;;;;;;;16.70;66.30;;;12.34;100.00;92119.06;4988612;28;19918;-54
2023/10/20 03:40:37;;;;;;;;;;;16.70;66.30;;;12.34;100.00;92119.84;4991602;28;19916;-54
2023/10/20 03:43:08;;;;;;;;;;;16.70;66.30;;;12.37;100.00;92121.03;4993488;28;19914;-52
2023/10/20 03:45:48;;;;;;;;;;;16.70;66.30;;;12.38;100.00;92109.22;4991561;28;19955;-55
2023/10/20 03:48:15;;;;;;;;;;;16.70;66.40;;;12.37;100.00;92110.34;4995085;28;19921;-55
2023/10/20 03:50:46;;;;;;;;;;;16.70;66.40;;;12.37;100.00;92105.00;4991006;28;20007;-53
2023/10/20 03:53:22;;;;;;;;;;;16.80;66.50;;;12.36;100.00;92096.22;4995848;28;19967;-51
2023/10/20 03:56:06;;;;;;;;;;;16.70;66.40;;;12.39;100.00;92082.16;4991397;28;19909;-55
2023/10/20 03:58:33;;;;;;;;;;;16.80;66.50;;;12.38;100.00;92090.53;4995500;28;19921;-53
2023/10/20 04:01:03;;;;;;;;;;;16.80;66.60;;;12.39;100.00;92082.16;4993908;28;20008;-54
2023/10/20 04:03:32;;;;;;;;;;;16.70;66.60;;;12.39;100.00;92071.50;4988993;28;19963;-51
2023/10/20 04:06:02;;;;;;;;;;;16.70;66.60;;;12.35;100.00;92073.34;4994804;28;19910;-52
2023/10/20 04:08:28;;;;;;;;;;;16.80;66.70;;;12.39;100.00;92074.16;4992996;28;19917;-54
2023/10/20 04:10:58;;;;;;;;;;;16.70;66.70;;;12.37;100.00;92032.94;4995016;28;20004;-51
2023/10/20 04:13:24;;;;;;;;;;;16.70;66.70;;;12.41;100.00;92049.78;4992875;28;20508;-51
2023/10/20 04:15:52;;;;;;;;;;;16.70;66.70;;;12.40;100.00;92024.22;4993327;28;19948;-48
2023/10/20 04:18:19;;;;;;;;;;;16.70;66.70;;;12.40;100.00;92000.19;4995464;28;19913;-50
2023/10/20 04:20:48;;;;;;;;;;;16.80;66.70;;;12.45;100.00;92010.56;4994101;28;19932;-52
2023/10/20 04:23:18;;;;;;;;;;;16.80;66.70;;;12.44;100.00;92001.81;4994766;28;19959;-51
2023/10/20 04:25:53;;;;;;;;;;;16.80;66.70;;;12.43;100.00;91997.56;4993936;28;20003;-54
2023/10/20 04:28:38;;;;;;;;;;;16.80;66.70;;;12.43;100.00;91962.13;4978635;28;19910;-53
2023/10/20 05:08:05;;;;;;;;;;;16.80;67.10;;;12.37;100.00;91838.91;4991315;28;19920;-50
2023/10/20 05:10:31;;;;;;;;;;;16.80;67.10;;;12.38;100.00;91847.66;4993900;28;19913;-54
2023/10/20 05:12:57;;;;;;;;;;;16.70;67.90;;;12.35;100.00;91835.09;4993943;28;19917;-54
2023/10/20 05:15:24;;;;;;;;;;;16.70;67.00;;;12.33;100.00;91837.34;4992881;28;19909;-55
2023/10/20 05:17:50;;;;;;;;;;;16.70;67.00;;;12.26;100.00;91833.47;4993209;28;19913;-53
2023/10/20 05:20:20;;;;;;;;;;;16.70;67.10;;;12.26;100.00;91827.38;4992742;28;19916;-55
2023/10/20 05:22:48;;;;;;;;;;;16.70;67.00;;;12.25;100.00;91815.13;4993367;28;19996;-55
2023/10/20 05:25:14;;;;;;;;;;;16.60;67.00;;;12.22;100.00;91791.84;4992741;28;19913;-54
2023/10/20 05:27:41;;;;;;;;;;;16.60;67.10;;;12.18;100.00;91786.50;4993053;28;19936;-55
2023/10/20 05:30:08;;;;;;;;;;;16.60;67.10;;;12.15;100.00;91787.22;4993646;28;20358;-51
2023/10/20 05:32:34;;;;;;;;;;;16.60;67.30;;;12.18;100.00;91786.50;4993149;28;19915;-55
2023/10/20 05:35:01;;;;;;;;;;;16.60;67.30;;;12.19;100.00;91772.03;4992480;28;19917;-49
2023/10/20 05:37:27;;;;;;;;;;;16.50;67.20;;;12.18;100.00;91729.69;4992272;28;19964;-53
2023/10/20 05:39:53;;;;;;;;;;;16.50;67.30;;;12.11;100.00;91761.66;4993108;28;19948;-53
2023/10/20 05:42:19;;;;;;;;;;;16.50;67.50;;;12.13;100.00;91722.06;4992905;28;20015;-54
2023/10/20 05:45:09;;;;;;;;;;;16.50;67.50;;;12.09;100.00;91727.31;4988151;28;19909;-54
2023/10/20 05:47:34;;;;;;;;;;;16.50;67.50;;;12.12;100.00;91737.25;4990898;28;19960;-54
2023/10/20 05:50:01;;;;;;;;;;;16.50;67.50;;;12.10;100.00;91739.56;4990685;28;19959;-53
2023/10/20 05:52:27;;;;;;;;;;;16.50;67.50;;;12.11;100.00;91730.41;4992186;28;19909;-52
2023/10/20 05:54:56;;;;;;;;;;;16.50;67.50;;;12.13;100.00;91752.16;4992035;28;20040;-54
2023/10/20 05:57:25;;;;;;;;;;;16.50;67.50;;;12.18;100.00;91737.72;4990790;28;20004;-51
2023/10/20 05:59:51;;;;;;;;;;;16.50;67.50;;;12.15;100.00;91754.44;4992290;28;20354;-54
2023/10/20 06:02:17;;;;;;;;;;;16.50;67.50;;;12.19;100.00;91748.03;4991407;28;19916;-55
2023/10/20 06:04:42;;;;;;;;;;;16.40;67.40;;;12.17;100.00;91768.97;4991794;28;19917;-51
2023/10/20 06:07:08;;;;;;;;;;;16.50;67.40;;;12.14;100.00;91753.69;4990903;28;19909;-51
2023/10/20 06:09:34;;;;;;;;;;;16.50;67.40;;;12.14;100.00;91748.34;4991953;28;19996;-54
2023/10/20 06:12:01;;;;;;;;;;;16.50;67.40;;;12.13;100.00;91741.50;4992517;28;19916;-53
2023/10/20 06:14:27;;;;;;;;;;;16.50;67.50;;;12.15;100.00;91744.53;4987560;28;19909;-47
2023/10/20 06:16:53;;;;;;;;;;;16.50;67.40;;;12.17;100.00;91728.19;4983063;28;19913;-55
2023/10/20 06:19:19;;;;;;;;;;;16.50;67.40;;;12.21;100.00;91751.06;4984224;28;19917;-51
2023/10/20 06:21:46;;;;;;;;;;;16.50;67.50;;;12.27;100.00;91752.28;4982882;28;20395;-51
2023/10/20 06:24:13;;;;;;;;;;;16.60;67.50;;;12.34;100.00;91753.47;4982708;28;19925;-53
2023/10/20 06:26:39;;;;;;;;;;;16.60;67.60;;;12.40;100.00;91742.09;4983241;28;20383;-51
2023/10/20 06:34:34;;;;;;;;;;;16.70;67.40;;;12.43;100.00;91749.38;4982240;28;19916;-52
2023/10/20 06:37:08;;;;;;;;;;;16.80;67.30;;;12.45;100.00;91749.00;4996407;28;19928;-45
2023/10/20 06:39:38;;;;;;;;;;;16.80;67.20;;;12.49;100.00;91763.91;4983372;28;19909;-49
2023/10/20 06:42:05;;;;;;;;;;;16.80;67.10;;;12.52;100.00;91762.41;4977782;28;19967;-52
2023/10/20 06:44:31;;;;;;;;;;;16.90;67.20;;;12.58;100.00;91771.63;4983868;28;19952;-49
2023/10/20 06:46:59;;;;;;;;;;;17.00;67.20;;;12.66;100.00;91791.91;4983450;28;19921;-46
2023/10/20 06:49:25;;;;;;;;;;;17.00;67.00;;;12.75;100.00;91807.59;4980569;28;19917;-45
2023/10/20 06:51:51;;;;;;;;;;;17.10;66.90;;;12.80;100.00;91825.19;4983355;28;19918;-45
2023/10/20 06:54:17;;;;;;;;;;;17.20;66.80;;;12.79;100.00;91837.03;4983424;28;19916;-45
2023/10/20 06:56:44;;;;;;;;;;;17.20;66.70;;;12.80;100.00;91875.94;4983051;28;19967;-50
2023/10/20 06:59:13;;;;;;;;;;;17.30;66.60;;;12.74;100.00;91905.63;4984240;28;19909;-53
2023/10/20 07:01:40;;;;;;;;;;;17.40;66.50;;;12.73;100.00;91930.03;4990028;28;19928;-50
2023/10/20 07:04:08;;;;;;;;;;;17.40;66.40;;;12.73;100.00;91967.44;4978778;28;19913;-47
2023/10/20 07:06:36;;;;;;;;;;;17.40;66.60;;;12.76;100.00;91980.03;4984340;28;19949;-50
2023/10/20 07:09:14;;;;;;;;;;;17.50;66.30;;;12.77;100.00;92021.63;4983871;28;19909;-47
2023/10/20 07:11:42;;;;;;;;;;;17.60;66.30;;;12.77;100.00;92028.88;4981868;28;19925;-44
2023/10/20 07:14:10;;;;;;;;;;;17.60;66.20;;;12.82;100.00;92037.34;4983110;28;19913;-52
2023/10/20 07:16:36;;;;;;;;;;;17.70;66.00;;;12.89;100.00;92056.13;4984006;28;20371;-54
2023/10/20 07:19:04;;;;;;;;;;;17.70;66.00;;;12.98;100.00;92042.47;4983549;28;19917;-47
2023/10/20 07:21:30;;;;;;;;;;;17.80;65.80;;;13.05;100.00;92013.16;4983869;28;20350;-48
2023/10/20 07:23:56;;;;;;;;;;;17.80;65.70;;;13.15;100.00;92028.53;4980708;28;20283;-49
2023/10/20 07:26:23;;;;;;;;;;;17.90;65.80;;;13.17;100.00;92038.88;4983442;28;19917;-51
2023/10/20 07:28:49;;;;;;;;;;;17.90;65.60;;;13.14;100.00;92048.38;4981683;28;19914;-50
2023/10/20 07:31:18;;;;;;;;;;;17.90;65.60;;;13.17;100.00;92093.06;4983511;28;20356;-48
2023/10/20 07:33:44;;;;;;;;;;;17.90;65.60;;;13.20;100.00;92119.06;4983129;28;20046;-47
2023/10/20 07:36:10;;;;;;;;;;;17.90;65.50;;;13.24;100.00;92126.34;4982216;28;19910;-47
2023/10/20 07:38:38;;;;;;;;;;;17.90;65.50;;;13.26;100.00;92127.56;4983502;28;19909;-47
2023/10/20 07:41:07;;;;;;;;;;;17.90;65.40;;;13.26;100.00;92114.19;4982307;28;19913;-53
2023/10/20 07:43:33;;;;;;;;;;;17.90;65.30;;;13.31;100.00;92142.50;4981948;28;19914;-49
2023/10/20 07:45:59;;;;;;;;;;;18.00;65.20;;;13.27;100.00;92155.81;4983838;28;20299;-48
2023/10/20 07:48:26;;;;;;;;;;;17.90;65.10;;;13.32;100.00;92170.78;4982617;28;19913;-50
2023/10/20 07:50:52;;;;;;;;;;;17.90;65.10;;;13.33;100.00;92162.38;4983106;28;19936;-47
2023/10/20 07:53:21;;;;;;;;;;;17.90;65.10;;;13.32;100.00;92170.78;4983905;28;19913;-45
2023/10/20 07:55:47;;;;;;;;;;;17.90;65.10;;;13.33;100.00;92178.44;4982687;28;19914;-50
2023/10/20 07:58:13;;;;;;;;;;;17.90;65.10;;;13.33;100.00;92180.34;4982439;28;19913;-46
2023/10/20 08:00:38;;;;;;;;;;;17.90;65.00;;;13.34;100.00;92181.88;4977419;28;20047;-49
2023/10/20 08:03:05;;;;;;;;;;;17.90;65.10;;;13.35;100.00;92186.06;4982701;28;19947;-49
2023/10/20 08:05:34;;;;;;;;;;;17.80;65.00;;;13.34;100.00;92187.22;4979773;28;19952;-46
2023/10/20 08:08:01;;;;;;;;;;;17.80;65.10;;;13.30;100.00;92186.41;4979875;28;20026;-47
2023/10/20 08:10:27;;;;;;;;;;;17.80;65.10;;;13.29;100.00;92188.31;4980319;28;20399;-48
2023/10/20 08:12:54;;;;;;;;;;;17.80;65.00;;;13.32;100.00;92210.88;4980782;28;19913;-50
2023/10/20 08:15:20;;;;;;;;;;;17.80;65.10;;;13.25;100.00;92234.81;4979656;28;20279;-47
2023/10/20 08:17:48;;;;;;;;;;;17.70;65.10;;;13.31;100.00;92257.44;4979086;28;19914;-49
2023/10/20 08:20:14;;;;;;;;;;;17.70;65.20;;;13.26;100.00;92255.09;4981802;28;19952;-46
2023/10/20 08:22:40;;;;;;;;;;;17.70;65.30;;;13.24;100.00;92271.44;4980044;28;21084;-53
2023/10/20 08:25:07;;;;;;;;;;;17.60;65.40;;;13.16;100.00;92259.09;4980910;28;19909;-47
2023/10/20 08:27:33;;;;;;;;;;;17.60;65.50;;;13.10;100.00;92255.19;4980122;28;19937;-49
2023/10/20 08:29:58;;;;;;;;;;;17.60;65.50;;;13.05;100.00;92250.94;4983501;28;20020;-47
2023/10/20 08:32:25;;;;;;;;;;;17.60;65.50;;;12.98;100.00;92237.50;4983868;28;22059;-47
2023/10/20 08:34:51;;;;;;;;;;;17.50;65.70;;;12.99;100.00;92212.31;4984485;28;20228;-52
2023/10/20 08:37:17;;;;;;;;;;;17.50;65.80;;;12.99;100.00;92208.88;4987485;28;20284;-49
2023/10/20 08:39:46;;;;;;;;;;;17.60;65.90;;;13.07;100.00;92247.94;4986639;28;19909;-48
2023/10/20 08:42:19;;;;;;;;;;;17.70;65.90;;;13.17;100.00;92255.31;4986684;28;20008;-47
2023/10/20 08:44:47;;;;;;;;;;;17.80;65.90;;;13.28;100.00;92274.19;4985200;28;19956;-47
2023/10/20 08:47:15;;;;;;;;;;;18.10;66.10;;;13.39;100.00;92285.81;4985083;28;19917;-48
2023/10/20 08:49:42;;;;;;;;;;;18.20;65.80;;;13.54;100.00;92302.81;4986417;28;20097;-48
2023/10/20 08:52:11;;;;;;;;;;;18.40;65.70;;;13.64;100.00;92278.88;4988071;28;19913;-51
2023/10/20 08:54:38;;;;;;;;;;;18.50;65.60;;;13.70;100.00;92292.72;4985536;28;19999;-48
2023/10/20 08:57:05;;;;;;;;;;;18.60;65.60;;;13.57;100.00;92310.88;4984568;28;20020;-50
2023/10/20 08:59:32;;;;;;;;;;;18.50;65.60;;;13.59;100.00;92316.63;4984305;28;19919;-48
2023/10/20 09:01:58;;;;;;;;;;;18.40;65.50;;;13.67;100.00;92325.53;4986597;28;19956;-47
2023/10/20 09:04:27;;;;;;;;;;;18.30;65.60;;;13.63;100.00;92338.06;4985882;28;19937;-47
2023/10/20 09:06:53;;;;;;;;;;;18.30;65.80;;;13.70;100.00;92343.53;4986421;28;20372;-47
2023/10/20 09:09:20;;;;;;;;;;;18.30;65.90;;;13.67;100.00;92332.78;4985419;28;19917;-47
2023/10/20 09:11:47;;;;;;;;;;;18.40;65.90;;;13.83;100.00;92326.09;4986240;28;19913;-49
2023/10/20 09:14:14;;;;;;;;;;;18.60;65.80;;;13.99;100.00;92317.13;4983312;28;19966;-47
2023/10/20 09:16:45;;;;;;;;;;;18.70;65.60;;;14.17;100.00;92326.13;4987919;28;19940;-46
2023/10/20 09:19:12;;;;;;;;;;;19.00;65.60;;;14.32;100.00;92317.13;4982158;28;19917;-49
2023/10/20 09:21:42;;;;;;;;;;;19.30;65.40;;;14.50;100.00;92336.03;4983898;28;19913;-47
2023/10/20 09:24:10;;;;;;;;;;;19.50;65.20;;;14.58;100.00;92326.97;4981809;28;20322;-46
2023/10/20 09:26:38;;;;;;;;;;;19.70;64.90;;;14.66;100.00;92343.09;4985396;28;19909;-52
2023/10/20 09:29:06;;;;;;;;;;;19.80;64.70;;;14.73;100.00;92383.38;4981829;28;19937;-49
2023/10/20 09:31:34;;;;;;;;;;;19.80;64.40;;;14.74;100.00;92368.84;4987207;28;19971;-51
2023/10/20 09:34:00;;;;;;;;;;;19.90;64.40;;;14.55;100.00;92364.44;4983551;28;20004;-49
2023/10/20 09:36:30;;;;;;;;;;;19.90;64.30;;;14.63;100.00;92394.72;4984467;28;19919;-48
2023/10/20 09:38:58;;;;;;;;;;;19.90;64.10;;;14.66;100.00;92391.31;4988301;28;19979;-47
2023/10/20 09:41:27;;;;;;;;;;;19.80;64.10;;;14.65;100.00;92385.19;4980839;28;19994;-49
2023/10/20 09:44:03;;;;;;;;;;;19.70;64.20;;;14.42;100.00;92398.69;4984513;28;19914;-52
2023/10/20 09:47:06;;;;;;;;;;;19.60;64.20;;;14.44;100.00;92414.38;4996847;28;19918;-47
2023/10/20 09:49:35;;;;;;;;;;;19.50;64.10;;;14.43;100.00;92402.13;4984413;28;20402;-49
2023/10/20 09:52:01;;;;;;;;;;;19.40;64.20;;;14.47;100.00;92408.31;4983037;28;20036;-51
2023/10/20 09:54:34;;;;;;;;;;;19.40;64.20;;;14.54;100.00;92433.31;4982678;28;20027;-50
2023/10/20 09:57:01;;;;;;;;;;;19.40;64.20;;;14.56;100.00;92430.25;4971480;28;19917;-47
2023/10/20 09:59:28;;;;;;;;;;;19.40;64.20;;;14.57;100.00;92432.56;4963190;28;20365;-49
2023/10/20 10:01:56;;;;;;;;;;;19.50;64.10;;;14.65;100.00;92432.63;4984772;28;22446;-49
2023/10/20 10:04:37;;;;;;;;;;;19.50;64.00;;;14.61;100.00;92437.97;4998463;28;20350;-49
2023/10/20 10:07:09;;;;;;;;;;;19.60;63.80;;;14.58;100.00;92444.81;4983896;28;19913;-45
2023/10/20 10:09:52;;;;;;;;;;;19.60;63.20;;;14.63;100.00;92446.38;4983694;28;19922;-47
2023/10/20 10:12:21;;;;;;;;;;;19.60;63.20;;;14.60;100.00;92457.06;4984830;28;19916;-45
2023/10/20 10:15:01;;;;;;;;;;;19.60;63.10;;;14.47;100.00;92484.03;4984010;28;19916;-45
2023/10/20 10:17:27;;;;;;;;;;;19.40;63.00;;;14.44;100.00;92479.41;4981643;28;19945;-48
2023/10/20 10:19:56;;;;;;;;;;;19.30;63.10;;;14.36;100.00;92464.41;4978762;28;19948;-49
2023/10/20 10:22:31;;;;;;;;;;;19.20;63.30;;;14.37;100.00;92459.81;4985058;28;19913;-46
2023/10/20 10:25:00;;;;;;;;;;;19.10;63.60;;;14.37;100.00;92489.28;4982712;28;19910;-46
2023/10/20 10:27:30;;;;;;;;;;;19.00;63.80;;;14.27;100.00;92480.75;4979092;28;19917;-49
2023/10/20 10:32:31;;;;;;;;;;;18.80;64.10;;;14.24;100.00;92486.81;4984297;28;19924;-47
2023/10/20 10:34:58;;;;;;;;;;;18.80;64.30;;;14.10;100.00;92486.59;4978380;28;19991;-47
2023/10/20 10:37:38;;;;;;;;;;;18.70;64.50;;;14.01;100.00;92496.81;4979554;28;19914;-47
2023/10/20 10:40:13;;;;;;;;;;;18.60;64.70;;;13.99;100.00;92496.41;4983707;28;19996;-46
2023/10/20 10:42:49;;;;;;;;;;;18.50;64.90;;;14.01;100.00;92508.28;4983182;28;19915;-45
2023/10/20 10:45:22;;;;;;;;;;;18.40;65.10;;;13.97;100.00;92498.66;4981109;28;19944;-46
2023/10/20 10:47:51;;;;;;;;;;;18.30;65.40;;;13.87;100.00;92521.44;4984486;28;20292;-47
2023/10/20 10:50:20;;;;;;;;;;;18.20;65.60;;;13.71;100.00;92518.91;4983412;28;19948;-44
2023/10/20 10:52:47;;;;;;;;;;;18.20;65.90;;;13.70;100.00;92520.06;4983980;28;19940;-46
2023/10/20 10:55:13;;;;;;;;;;;18.10;66.00;;;13.60;100.00;92529.44;4984947;28;19910;-46
2023/10/20 10:57:41;;;;;;;;;;;18.00;66.10;;;13.60;100.00;92537.47;4977652;28;19936;-47
2023/10/20 11:00:08;;;;;;;;;;;18.00;66.30;;;13.65;100.00;92534.47;4981580;28;19910;-47
2023/10/20 11:02:34;;;;;;;;;;;18.00;66.40;;;13.67;100.00;92538.72;4980037;28;19909;-44
2023/10/20 11:05:02;;;;;;;;;;;18.00;66.60;;;13.67;100.00;92539.50;4977778;28;19996;-47
2023/10/20 11:07:27;;;;;;;;;;;18.10;66.70;;;13.58;100.00;92542.38;4976086;28;19909;-45
2023/10/20 11:09:53;;;;;;;;;;;18.10;66.80;;;13.54;100.00;92552.25;4979801;28;19964;-49
2023/10/20 11:12:22;;;;;;;;;;;18.00;66.80;;;13.50;100.00;92550.66;4931422;28;22026;-45
2023/10/20 11:14:48;;;;;;;;;;;18.00;66.90;;;13.43;100.00;92552.06;4982473;28;19913;-49
2023/10/20 11:17:15;;;;;;;;;;;18.00;67.10;;;13.48;100.00;92564.38;4982227;28;19947;-44
2023/10/20 11:19:41;;;;;;;;;;;17.90;67.10;;;13.45;100.00;92570.44;4983624;28;20356;-45
2023/10/20 11:22:17;;;;;;;;;;;17.90;67.30;;;13.51;100.00;92578.94;4979532;28;20427;-46
2023/10/20 11:24:53;;;;;;;;;;;17.90;68.10;;;13.50;100.00;92582.72;4980009;28;20007;-46
2023/10/20 11:27:19;;;;;;;;;;;17.90;67.40;;;13.46;100.00;92588.00;4983148;28;20013;-45
2023/10/20 11:29:47;;;;;;;;;;;17.90;68.30;;;13.47;100.00;92580.75;4983269;28;19917;-47
2023/10/20 11:32:14;;;;;;;;;;;17.80;67.40;;;13.34;100.00;92590.84;4978178;28;20330;-44
2023/10/20 11:34:40;;;;;;;;;;;17.80;67.60;;;13.31;100.00;92591.56;4980310;28;20392;-45
2023/10/20 11:37:08;;;;;;;;;;;17.80;67.60;;;13.36;100.00;92585.94;4978820;28;20001;-44
2023/10/20 11:39:36;;;;;;;;;;;17.70;67.60;;;13.32;100.00;92593.88;4983882;28;19984;-46
2023/10/20 11:42:03;;;;;;;;;;;17.70;67.70;;;13.26;100.00;92591.84;4983097;28;20415;-45
2023/10/20 11:44:29;;;;;;;;;;;17.70;67.70;;;13.33;100.00;92592.75;4976844;28;20289;-48
2023/10/20 11:46:56;;;;;;;;;;;17.70;67.80;;;13.38;100.00;92600.50;4982035;28;19921;-47
2023/10/20 11:49:25;;;;;;;;;;;17.70;67.80;;;13.29;100.00;92604.50;4982386;28;19917;-48
2023/10/20 11:51:51;;;;;;;;;;;17.70;67.80;;;13.32;100.00;92612.59;4981909;28;19956;-46
2023/10/20 11:54:17;;;;;;;;;;;17.70;67.80;;;13.20;100.00;92612.72;4981424;28;20387;-48
2023/10/20 11:56:44;;;;;;;;;;;17.60;67.90;;;13.22;100.00;92607.78;4980179;28;19950;-52
2023/10/20 11:59:15;;;;;;;;;;;17.60;67.90;;;13.19;100.00;92617.28;4980343;28;19921;-48